createdAt,value
2022-11-14T00:04:49.009Z,7.00
2022-11-14T00:10:12.470Z,6.90
2022-11-14T00:15:34.220Z,7.00
2022-11-14T00:20:56.398Z,6.90
2022-11-14T00:26:19.813Z,6.80
2022-11-14T00:31:42.428Z,6.70
2022-11-14T00:37:04.584Z,6.70
2022-11-14T00:42:27.872Z,6.80
2022-11-14T00:47:49.908Z,6.70
2022-11-14T00:53:11.973Z,6.70
2022-11-14T00:58:35.156Z,6.70
2022-11-14T01:03:56.844Z,6.70
2022-11-14T01:09:18.789Z,6.70
2022-11-14T01:14:42.128Z,6.60
2022-11-14T01:20:05.233Z,6.60
2022-11-14T01:25:27.218Z,6.50
2022-11-14T01:30:50.040Z,6.50
2022-11-14T01:36:12.131Z,6.30
2022-11-14T01:41:34.202Z,6.40
2022-11-14T01:46:57.313Z,6.30
2022-11-14T01:52:22.158Z,6.20
2022-11-14T01:57:47.055Z,6.20
2022-11-14T02:03:11.303Z,6.10
2022-11-14T02:08:33.919Z,6.00
2022-11-14T02:13:55.991Z,6.00
2022-11-14T02:19:19.370Z,6.00
2022-11-14T02:24:42.876Z,6.00
2022-11-14T02:30:07.050Z,6.00
2022-11-14T02:35:29.124Z,5.80
2022-11-14T02:40:52.320Z,5.90
2022-11-14T02:46:14.114Z,6.00
2022-11-14T02:51:35.885Z,6.30
2022-11-14T02:56:59.541Z,6.30
2022-11-14T03:02:21.171Z,6.40
2022-11-14T03:07:42.601Z,6.40
2022-11-14T03:13:05.646Z,6.50
2022-11-14T03:18:27.526Z,6.40
2022-11-14T03:23:49.500Z,6.50
2022-11-14T03:29:12.346Z,6.60
2022-11-14T03:34:33.897Z,6.30
2022-11-14T03:39:55.864Z,6.40
2022-11-14T03:45:19.142Z,6.50
2022-11-14T03:50:41.805Z,6.40
2022-11-14T03:56:04.387Z,6.40
2022-11-14T04:01:29.108Z,6.30
2022-11-14T04:06:50.949Z,6.20
2022-11-14T04:12:15.878Z,6.20
2022-11-14T04:17:40.113Z,6.20
2022-11-14T04:23:02.138Z,6.20
2022-11-14T04:28:24.131Z,6.10
2022-11-14T04:33:47.101Z,6.10
2022-11-14T04:39:08.807Z,6.00
2022-11-14T04:44:30.623Z,6.00
2022-11-14T04:49:53.374Z,6.00
2022-11-14T04:55:15.154Z,5.90
2022-11-14T05:00:37.059Z,6.00
2022-11-14T05:06:02.776Z,5.80
2022-11-14T05:11:28.990Z,5.60
2022-11-14T05:16:51.150Z,5.60
2022-11-14T05:22:14.436Z,5.50
2022-11-14T05:27:36.023Z,5.60
2022-11-14T05:32:57.531Z,5.40
2022-11-14T05:38:20.708Z,5.50
2022-11-14T05:43:43.633Z,5.30
2022-11-14T05:49:05.370Z,5.30
2022-11-14T05:54:28.502Z,5.60
2022-11-14T05:59:50.268Z,5.50
2022-11-14T06:05:12.187Z,5.60
2022-11-14T06:10:36.528Z,5.70
2022-11-14T06:16:00.850Z,5.90
2022-11-14T06:21:24.394Z,5.90
2022-11-14T06:26:47.737Z,5.80
2022-11-14T06:32:09.254Z,5.90
2022-11-14T06:37:33.855Z,6.00
2022-11-14T06:42:57.347Z,6.00
2022-11-14T06:48:18.965Z,5.90
2022-11-14T06:53:41.524Z,5.80
2022-11-14T06:59:04.663Z,5.80
2022-11-14T07:04:26.560Z,5.70
2022-11-14T07:09:48.068Z,5.80
2022-11-14T07:15:11.402Z,5.90
2022-11-14T07:20:33.242Z,6.00
2022-11-14T07:25:55.089Z,5.90
2022-11-14T07:31:19.851Z,6.00
2022-11-14T07:36:41.771Z,6.10
2022-11-14T07:42:03.887Z,6.20
2022-11-14T07:47:26.975Z,6.30
2022-11-14T07:52:51.022Z,6.30
2022-11-14T07:58:13.546Z,6.40
2022-11-14T08:03:40.921Z,6.60
2022-11-14T08:09:05.793Z,6.60
2022-11-14T08:14:27.772Z,6.70
2022-11-14T08:19:51.027Z,6.80
2022-11-14T08:25:12.561Z,7.00
2022-11-14T08:30:34.422Z,7.30
2022-11-14T08:36:00.984Z,7.40
2022-11-14T08:41:22.751Z,7.30
2022-11-14T08:46:44.599Z,7.90
2022-11-14T08:52:12.331Z,8.30
2022-11-14T08:57:37.394Z,8.60
2022-11-14T09:02:59.099Z,9.20
2022-11-14T09:08:22.695Z,9.00
2022-11-14T09:13:44.547Z,8.60
2022-11-14T09:19:06.264Z,8.10
2022-11-14T09:24:29.495Z,8.40
2022-11-14T09:29:51.587Z,9.00
2022-11-14T09:35:13.278Z,9.40
2022-11-14T09:40:49.468Z,9.00
2022-11-14T09:46:20.822Z,8.40
2022-11-14T09:51:49.364Z,8.20
2022-11-14T09:57:17.340Z,8.40
2022-11-14T10:02:50.766Z,8.80
2022-11-14T10:08:26.630Z,8.50
2022-11-14T10:14:15.589Z,8.70
2022-11-14T10:19:43.099Z,8.80
2022-11-14T10:25:21.202Z,8.90
2022-11-14T10:30:53.380Z,9.00
2022-11-14T10:36:23.519Z,9.40
2022-11-14T10:42:07.508Z,9.60
2022-11-14T10:47:36.776Z,10.00
2022-11-14T10:53:03.156Z,10.00
2022-11-14T10:58:25.046Z,9.90
2022-11-14T11:03:47.936Z,10.10
2022-11-14T11:09:33.384Z,10.00
2022-11-14T11:15:15.142Z,10.40
2022-11-14T11:20:41.045Z,11.20
2022-11-14T11:26:05.940Z,11.20
2022-11-14T11:31:27.813Z,10.60
2022-11-14T11:36:55.493Z,10.60
2022-11-14T11:42:22.795Z,10.70
2022-11-14T11:47:50.534Z,11.00
2022-11-14T11:53:21.072Z,10.90
2022-11-14T11:58:47.277Z,10.60
2022-11-14T12:04:09.013Z,10.60
2022-11-14T12:10:08.940Z,10.80
2022-11-14T12:15:24.388Z,12.00
2022-11-14T12:21:03.771Z,12.60
2022-11-14T12:26:44.738Z,12.70
2022-11-14T12:32:11.486Z,13.00
2022-11-14T12:37:36.102Z,13.90
2022-11-14T12:43:01.545Z,13.50
2022-11-14T12:48:30.828Z,13.70
2022-11-14T12:53:53.332Z,13.30
2022-11-14T12:59:28.302Z,13.80
2022-11-14T13:05:14.782Z,13.50
2022-11-14T13:10:39.651Z,12.90
2022-11-14T13:16:22.594Z,13.00
2022-11-14T13:22:18.317Z,13.20
2022-11-14T13:28:05.946Z,12.90
2022-11-14T13:33:45.067Z,12.20
2022-11-14T13:39:24.852Z,11.40
2022-11-14T13:45:17.970Z,11.40
2022-11-14T13:50:43.734Z,11.10
2022-11-14T13:56:20.380Z,11.10
2022-11-14T14:01:53.090Z,10.90
2022-11-14T14:07:24.212Z,10.80
2022-11-14T14:12:59.521Z,10.70
2022-11-14T14:18:30.305Z,10.50
2022-11-14T14:24:04.420Z,10.40
2022-11-14T14:29:33.336Z,10.40
2022-11-14T14:34:58.457Z,10.30
2022-11-14T14:40:26.394Z,9.90
2022-11-14T14:45:53.291Z,9.60
2022-11-14T14:51:29.043Z,9.60
2022-11-14T14:57:00.069Z,9.60
2022-11-14T15:02:23.393Z,9.50
2022-11-14T15:07:46.453Z,9.20
2022-11-14T15:13:14.207Z,9.10
2022-11-14T15:18:36.735Z,8.70
2022-11-14T15:24:00.495Z,8.40
2022-11-14T15:29:25.401Z,8.00
2022-11-14T15:35:09.363Z,7.70
2022-11-14T15:40:35.441Z,7.60
2022-11-14T15:46:02.582Z,7.40
2022-11-14T15:51:43.525Z,7.00
2022-11-14T15:57:13.113Z,6.90
2022-11-14T16:02:46.280Z,6.90
2022-11-14T16:08:10.136Z,6.90
2022-11-14T16:13:32.197Z,7.00
2022-11-14T16:18:55.576Z,7.00
2022-11-14T16:24:19.149Z,7.20
2022-11-14T16:29:40.832Z,7.20
2022-11-14T16:35:04.691Z,7.20
2022-11-14T16:40:27.956Z,7.10
2022-11-14T16:45:50.064Z,7.10
2022-11-14T16:51:40.901Z,7.20
2022-11-14T16:56:55.548Z,7.00
2022-11-14T17:02:18.783Z,6.70
2022-11-14T17:07:42.205Z,6.70
2022-11-14T17:13:04.246Z,6.60
2022-11-14T17:18:25.966Z,6.60
2022-11-14T17:23:54.020Z,6.50
2022-11-14T17:29:15.878Z,6.50
2022-11-14T17:34:37.948Z,6.40
2022-11-14T17:40:01.419Z,6.40
2022-11-14T17:45:23.568Z,6.40
2022-11-14T17:50:45.400Z,6.30
2022-11-14T17:56:12.957Z,6.30
2022-11-14T18:01:35.172Z,6.20
2022-11-14T18:06:56.856Z,6.20
2022-11-14T18:12:20.252Z,6.10
2022-11-14T18:17:42.416Z,6.10
2022-11-14T18:23:04.199Z,6.00
2022-11-14T18:28:27.677Z,6.00
2022-11-14T18:33:49.699Z,5.90
2022-11-14T18:39:12.058Z,6.00
2022-11-14T18:44:35.244Z,6.00
2022-11-14T18:49:59.273Z,6.00
2022-11-14T18:55:21.028Z,5.90
2022-11-14T19:00:45.242Z,5.70
2022-11-14T19:06:09.303Z,5.40
2022-11-14T19:11:50.008Z,5.20
2022-11-14T19:17:14.400Z,5.20
2022-11-14T19:22:36.399Z,5.30
2022-11-14T19:27:57.971Z,5.20
2022-11-14T19:33:21.141Z,5.00
2022-11-14T19:38:43.783Z,5.20
2022-11-14T19:44:05.701Z,5.20
2022-11-14T19:49:28.836Z,5.00
2022-11-14T19:54:51.688Z,5.00
2022-11-14T20:00:14.916Z,5.10
2022-11-14T20:05:38.496Z,5.30
2022-11-14T20:11:02.130Z,5.30
2022-11-14T20:16:25.592Z,5.40
2022-11-14T20:21:49.216Z,5.50
2022-11-14T20:27:11.186Z,5.60
2022-11-14T20:32:33.075Z,5.60
2022-11-14T20:37:59.388Z,5.60
2022-11-14T20:43:25.706Z,5.50
2022-11-14T20:48:48.249Z,5.50
2022-11-14T20:54:11.141Z,5.50
2022-11-14T20:59:33.225Z,5.30
2022-11-14T21:04:55.177Z,5.20
2022-11-14T21:10:37.026Z,5.20
2022-11-14T21:15:59.877Z,5.30
2022-11-14T21:21:30.422Z,5.10
2022-11-14T21:26:53.905Z,5.10
2022-11-14T21:32:15.809Z,5.30
2022-11-14T21:37:37.295Z,5.20
2022-11-14T21:43:00.490Z,5.20
2022-11-14T21:48:22.334Z,5.20
2022-11-14T21:53:45.789Z,5.30
2022-11-14T21:59:14.458Z,5.20
2022-11-14T22:04:37.017Z,5.10
2022-11-14T22:09:58.718Z,5.10
2022-11-14T22:15:21.869Z,5.00
2022-11-14T22:20:43.887Z,4.90
2022-11-14T22:26:05.950Z,4.90
2022-11-14T22:31:28.977Z,4.80
2022-11-14T22:36:50.561Z,4.70
2022-11-14T22:42:12.577Z,4.60
2022-11-14T22:47:35.654Z,4.80
2022-11-14T22:52:57.637Z,4.70
2022-11-14T22:58:19.452Z,4.60
2022-11-14T23:03:42.760Z,4.80
2022-11-14T23:09:05.291Z,4.70
2022-11-14T23:14:26.815Z,4.60
2022-11-14T23:19:50.674Z,4.40
2022-11-14T23:25:12.366Z,4.40
2022-11-14T23:30:35.757Z,4.20
2022-11-14T23:35:59.060Z,4.20
2022-11-14T23:41:22.804Z,4.10
2022-11-14T23:46:44.382Z,4.20
2022-11-14T23:52:07.714Z,4.30
2022-11-14T23:57:30.888Z,4.20
